createdAt,value
2019-04-30T00:03:59.487Z,101220.77
2019-04-30T00:09:05.376Z,101254.98
2019-04-30T00:14:09.696Z,101249.07
2019-04-30T00:19:15.867Z,101246.52
2019-04-30T00:24:19.813Z,101242.31
2019-04-30T00:29:28.001Z,101243.31
2019-04-30T00:34:30.929Z,101235.62
2019-04-30T00:39:35.884Z,101235.25
2019-04-30T00:44:40.179Z,101232.06
2019-04-30T00:49:44.834Z,101228.41
2019-04-30T00:54:50.273Z,101224.55
2019-04-30T00:59:54.876Z,101223.92
2019-04-30T01:05:05.342Z,101222.30
2019-04-30T01:10:06.845Z,101225.11
2019-04-30T01:15:14.516Z,101220.13
2019-04-30T01:20:19.455Z,101220.63
2019-04-30T01:25:23.929Z,101217.64
2019-04-30T01:30:28.527Z,101216.02
2019-04-30T01:35:32.919Z,101213.41
2019-04-30T01:40:42.796Z,101213.47
2019-04-30T01:45:45.486Z,101210.48
2019-04-30T01:50:49.667Z,101210.61
2019-04-30T01:56:19.267Z,101214.55
2019-04-30T02:01:24.815Z,101207.98
2019-04-30T02:06:29.468Z,101214.66
2019-04-30T02:11:33.764Z,101215.09
2019-04-30T02:16:39.549Z,101218.44
2019-04-30T02:21:43.858Z,101213.61
2019-04-30T02:26:48.504Z,101225.28
2019-04-30T02:31:52.813Z,101219.64
2019-04-30T02:37:04.020Z,101223.45
2019-04-30T02:42:13.010Z,101218.20
2019-04-30T02:47:16.236Z,101214.40
2019-04-30T02:52:22.013Z,101218.30
2019-04-30T02:57:26.199Z,101220.83
2019-04-30T03:02:31.417Z,101226.84
2019-04-30T03:07:35.579Z,101224.36
2019-04-30T03:12:40.498Z,101228.00
2019-04-30T03:18:00.887Z,101231.52
2019-04-30T03:23:05.080Z,101237.82
2019-04-30T03:28:09.842Z,101234.06
2019-04-30T03:33:14.154Z,101234.06
2019-04-30T03:38:20.431Z,101232.39
2019-04-30T03:43:24.244Z,101241.03
2019-04-30T03:48:29.450Z,101236.20
2019-04-30T03:53:34.347Z,101236.20
2019-04-30T03:58:39.602Z,101238.38
2019-04-30T04:04:05.748Z,101247.15
2019-04-30T04:09:22.459Z,101255.11
2019-04-30T04:14:29.757Z,101261.94
2019-04-30T04:19:33.966Z,101263.41
2019-04-30T04:24:40.120Z,101265.41
2019-04-30T04:29:44.109Z,101266.87
2019-04-30T04:34:50.583Z,101271.99
2019-04-30T04:39:54.211Z,101273.97
2019-04-30T04:44:59.507Z,101266.82
2019-04-30T04:50:04.086Z,101282.39
2019-04-30T04:55:10.010Z,101284.05
2019-04-30T05:00:14.795Z,101283.48
2019-04-30T05:05:19.515Z,101288.06
2019-04-30T05:10:23.853Z,101287.66
2019-04-30T05:15:29.478Z,101287.48
2019-04-30T05:20:33.876Z,101264.64
2019-04-30T05:25:39.021Z,101297.28
2019-04-30T05:30:43.218Z,101297.50
2019-04-30T05:35:49.464Z,101302.53
2019-04-30T05:40:53.334Z,101304.87
2019-04-30T05:45:58.683Z,101302.34
2019-04-30T05:51:03.085Z,101299.69
2019-04-30T05:56:09.248Z,101300.94
2019-04-30T06:01:13.218Z,101301.22
2019-04-30T06:06:19.290Z,101299.95
2019-04-30T06:11:41.542Z,101304.28
2019-04-30T06:17:04.024Z,101306.02
2019-04-30T06:22:10.709Z,101307.06
2019-04-30T06:27:14.730Z,101309.16
2019-04-30T06:32:19.618Z,101315.27
2019-04-30T06:37:24.368Z,101313.26
2019-04-30T06:42:29.353Z,101310.80
2019-04-30T06:47:33.889Z,101314.39
2019-04-30T06:52:39.037Z,101317.31
2019-04-30T06:57:43.255Z,101307.70
2019-04-30T07:02:49.283Z,101314.17
2019-04-30T07:08:12.112Z,101310.69
2019-04-30T07:13:19.723Z,101306.64
2019-04-30T07:18:23.965Z,101310.56
2019-04-30T07:23:28.571Z,101303.39
2019-04-30T07:28:43.680Z,101304.34
2019-04-30T07:33:39.688Z,101305.05
2019-04-30T07:38:51.768Z,101296.41
2019-04-30T07:43:49.948Z,101298.59
2019-04-30T07:48:54.166Z,101296.14
2019-04-30T07:53:59.049Z,101310.64
2019-04-30T07:59:03.412Z,101301.32
2019-04-30T08:04:29.748Z,101304.89
2019-04-30T08:09:39.684Z,101300.12
2019-04-30T08:14:39.840Z,101303.20
2019-04-30T08:19:44.169Z,101309.35
2019-04-30T08:24:49.124Z,101309.89
2019-04-30T08:29:53.422Z,101308.19
2019-04-30T08:35:00.963Z,101315.08
2019-04-30T08:40:04.009Z,101311.08
2019-04-30T08:45:10.850Z,101313.95
2019-04-30T08:50:20.081Z,101305.13
2019-04-30T08:55:23.808Z,101303.61
2019-04-30T09:00:29.741Z,101302.08
2019-04-30T09:05:51.935Z,101298.14
2019-04-30T09:10:56.123Z,101296.97
2019-04-30T09:16:00.453Z,101299.25
2019-04-30T09:21:06.514Z,101297.77
2019-04-30T09:26:10.555Z,101290.02
2019-04-30T09:31:14.765Z,101281.70
2019-04-30T09:36:20.848Z,101280.58
2019-04-30T09:41:25.137Z,101289.05
2019-04-30T09:46:30.036Z,101288.66
2019-04-30T09:51:34.371Z,101286.28
2019-04-30T09:56:39.344Z,101288.25
2019-04-30T10:01:43.777Z,101279.16
2019-04-30T10:06:49.929Z,101268.50
2019-04-30T10:12:13.074Z,101269.20
2019-04-30T10:17:39.096Z,101265.64
2019-04-30T10:22:43.603Z,101263.06
2019-04-30T10:27:49.791Z,101248.59
2019-04-30T10:32:54.069Z,101251.98
2019-04-30T10:37:59.578Z,101239.73
2019-04-30T10:43:03.878Z,101232.72
2019-04-30T10:48:08.472Z,101232.55
2019-04-30T10:53:12.962Z,101237.03
2019-04-30T10:58:17.180Z,101229.81
2019-04-30T11:03:23.113Z,101225.02
2019-04-30T11:08:27.599Z,101215.73
2019-04-30T11:13:31.847Z,101214.92
2019-04-30T11:18:36.309Z,101215.69
2019-04-30T11:23:40.866Z,101219.80
2019-04-30T11:28:45.545Z,101217.08
2019-04-30T11:33:50.082Z,101222.75
2019-04-30T11:38:54.565Z,101224.78
2019-04-30T11:43:59.454Z,101212.81
2019-04-30T11:49:03.841Z,101210.55
2019-04-30T11:54:08.929Z,101207.44
2019-04-30T11:59:14.509Z,101201.07
2019-04-30T12:04:19.437Z,101196.59
2019-04-30T12:09:54.847Z,101187.93
2019-04-30T12:15:02.402Z,101182.70
2019-04-30T12:20:05.618Z,101180.45
2019-04-30T12:25:10.184Z,101184.55
2019-04-30T12:30:14.504Z,101166.30
2019-04-30T12:35:18.983Z,101163.52
2019-04-30T12:40:29.053Z,101160.60
2019-04-30T12:45:29.486Z,101156.66
2019-04-30T12:50:49.216Z,101159.91
2019-04-30T12:56:10.999Z,101158.34
2019-04-30T13:01:15.227Z,101153.78
2019-04-30T13:06:20.114Z,101146.69
2019-04-30T13:11:25.534Z,101144.70
2019-04-30T13:16:30.041Z,101137.40
2019-04-30T13:21:34.369Z,101142.28
2019-04-30T13:26:39.658Z,101128.41
2019-04-30T13:31:44.062Z,101125.59
2019-04-30T13:36:49.354Z,101121.48
2019-04-30T13:42:01.397Z,101120.72
2019-04-30T13:47:05.631Z,101107.17
2019-04-30T13:52:10.017Z,101103.95
2019-04-30T13:57:14.604Z,101115.25
2019-04-30T14:02:18.995Z,101104.27
2019-04-30T14:07:40.765Z,101099.88
2019-04-30T14:12:50.997Z,101102.45
2019-04-30T14:17:55.206Z,101098.41
2019-04-30T14:22:59.401Z,101095.86
2019-04-30T14:28:03.601Z,101095.80
2019-04-30T14:33:09.475Z,101090.09
2019-04-30T14:38:13.782Z,101094.55
2019-04-30T14:43:27.638Z,101102.21
2019-04-30T14:48:40.605Z,101099.09
2019-04-30T14:54:09.557Z,101097.60
2019-04-30T14:59:33.003Z,101091.91
2019-04-30T15:04:39.174Z,101090.17
2019-04-30T15:09:43.141Z,101090.84
2019-04-30T15:14:49.295Z,101092.01
2019-04-30T15:19:54.622Z,101088.61
2019-04-30T15:24:59.256Z,101080.67
2019-04-30T15:30:04.144Z,101076.64
2019-04-30T15:35:08.888Z,101082.34
2019-04-30T15:40:13.248Z,101078.05
2019-04-30T15:45:19.174Z,101073.57
2019-04-30T15:50:23.430Z,101071.30
2019-04-30T15:55:27.642Z,101071.91
2019-04-30T16:00:32.320Z,101061.81
2019-04-30T16:05:39.984Z,101063.61
2019-04-30T16:11:09.587Z,101067.22
2019-04-30T16:16:13.261Z,101063.20
2019-04-30T16:21:19.369Z,101039.63
2019-04-30T16:26:24.225Z,101056.71
2019-04-30T16:31:29.228Z,101050.98
2019-04-30T16:36:33.794Z,101048.27
2019-04-30T16:41:40.561Z,101045.00
2019-04-30T16:46:44.167Z,101034.39
2019-04-30T16:51:50.030Z,101037.61
2019-04-30T16:57:03.392Z,101038.32
2019-04-30T17:02:00.645Z,101035.33
2019-04-30T17:07:42.418Z,101034.77
2019-04-30T17:12:56.815Z,101030.84
2019-04-30T17:18:01.040Z,101037.57
2019-04-30T17:23:05.348Z,101041.33
2019-04-30T17:28:09.558Z,101029.63
2019-04-30T17:33:13.876Z,101036.34
2019-04-30T17:38:18.190Z,101031.46
2019-04-30T17:43:24.351Z,101027.42
2019-04-30T17:48:29.358Z,101027.61
2019-04-30T17:53:36.389Z,101021.30
2019-04-30T17:58:40.594Z,101024.78
2019-04-30T18:03:44.815Z,101017.67
2019-04-30T18:08:49.126Z,101021.16
2019-04-30T18:14:10.186Z,101021.42
2019-04-30T18:19:39.412Z,101022.34
2019-04-30T18:24:59.258Z,101020.69
2019-04-30T18:30:04.012Z,101033.13
2019-04-30T18:35:08.315Z,101038.41
2019-04-30T18:40:12.833Z,101040.94
2019-04-30T18:45:19.313Z,101040.74
2019-04-30T18:50:23.356Z,101033.52
2019-04-30T18:55:27.576Z,101037.81
2019-04-30T19:00:39.507Z,101038.67
2019-04-30T19:05:49.206Z,101046.16
2019-04-30T19:11:21.789Z,101045.14
2019-04-30T19:16:49.544Z,101046.02
2019-04-30T19:21:53.945Z,101054.36
2019-04-30T19:26:58.749Z,101047.39
2019-04-30T19:32:03.378Z,101061.16
2019-04-30T19:37:08.754Z,101028.89
2019-04-30T19:42:13.617Z,101052.87
2019-04-30T19:47:19.198Z,101046.52
2019-04-30T19:52:24.269Z,101051.65
2019-04-30T19:57:29.012Z,101053.06
2019-04-30T20:02:34.123Z,101040.75
2019-04-30T20:07:40.581Z,101045.89
2019-04-30T20:12:45.739Z,101046.61
2019-04-30T20:17:50.344Z,101055.80
2019-04-30T20:22:55.756Z,101054.16
2019-04-30T20:28:00.957Z,101046.41
2019-04-30T20:33:05.994Z,101039.38
2019-04-30T20:38:33.045Z,101035.58
2019-04-30T20:43:39.385Z,101040.12
2019-04-30T20:48:43.667Z,101035.97
2019-04-30T20:53:49.180Z,101032.89
2019-04-30T20:58:57.897Z,101026.76
2019-04-30T21:03:59.526Z,101030.16
2019-04-30T21:09:05.411Z,101018.64
2019-04-30T21:14:09.661Z,101018.94
2019-04-30T21:19:13.881Z,101021.72
2019-04-30T21:24:18.109Z,101018.59
2019-04-30T21:29:22.346Z,101018.59
2019-04-30T21:34:34.112Z,101009.06
2019-04-30T21:39:38.309Z,101017.68
2019-04-30T21:44:42.526Z,101009.36
2019-04-30T21:49:46.744Z,101009.52
2019-04-30T21:54:50.940Z,101004.78
2019-04-30T21:59:55.146Z,101001.58
2019-04-30T22:04:59.347Z,100997.80
2019-04-30T22:10:04.015Z,100997.32
2019-04-30T22:15:08.342Z,100989.48
2019-04-30T22:20:12.651Z,100983.83
2019-04-30T22:25:16.839Z,100987.88
2019-04-30T22:30:21.243Z,100974.16
2019-04-30T22:35:50.929Z,100976.27
2019-04-30T22:40:55.133Z,100970.15
2019-04-30T22:46:04.302Z,100968.34
2019-04-30T22:51:08.619Z,100964.31
2019-04-30T22:56:12.818Z,100962.83
2019-04-30T23:01:26.750Z,100946.55
2019-04-30T23:06:30.970Z,100944.17
2019-04-30T23:11:35.160Z,100939.00
2019-04-30T23:16:39.371Z,100928.13
2019-04-30T23:21:43.560Z,100922.13
2019-04-30T23:26:47.763Z,100915.63
2019-04-30T23:31:51.954Z,100919.78
2019-04-30T23:36:56.177Z,100915.66
2019-04-30T23:42:00.373Z,100912.46
2019-04-30T23:47:04.571Z,100902.95
2019-04-30T23:52:08.766Z,100898.59
2019-04-30T23:57:12.971Z,100885.55
